sensor_id;sensor_type;location;lat;lon;timestamp;pressure;altitude;pressure_sealevel;temperature;humidity
16120;BME280;12670;53.502;10.252;2023-05-14T00:00:51;101686.03;;;14.05;72.55
16120;BME280;12670;53.502;10.252;2023-05-14T00:03:53;101683.38;;;14.05;72.43
16120;BME280;12670;53.502;10.252;2023-05-14T00:06:57;101692.31;;;14.04;72.34
16120;BME280;12670;53.502;10.252;2023-05-14T00:10:00;101683.38;;;13.83;73.71
16120;BME280;12670;53.502;10.252;2023-05-14T00:13:03;101680.53;;;13.88;73.71
16120;BME280;12670;53.502;10.252;2023-05-14T00:16:05;101680.66;;;13.85;72.84
16120;BME280;12670;53.502;10.252;2023-05-14T00:19:08;101672.84;;;13.80;73.89
16120;BME280;12670;53.502;10.252;2023-05-14T00:22:13;101668.88;;;13.69;73.37
16120;BME280;12670;53.502;10.252;2023-05-14T00:25:15;101672.03;;;13.56;74.91
16120;BME280;12670;53.502;10.252;2023-05-14T00:28:19;101678.84;;;13.64;74.43
16120;BME280;12670;53.502;10.252;2023-05-14T00:31:21;101671.63;;;13.66;75.47
16120;BME280;12670;53.502;10.252;2023-05-14T00:34:24;101673.81;;;13.56;76.01
16120;BME280;12670;53.502;10.252;2023-05-14T00:37:28;101682.34;;;13.42;76.48
16120;BME280;12670;53.502;10.252;2023-05-14T00:40:31;101690.63;;;13.34;77.64
16120;BME280;12670;53.502;10.252;2023-05-14T00:43:34;101681.94;;;13.29;78.14
16120;BME280;12670;53.502;10.252;2023-05-14T00:46:36;101675.50;;;13.35;77.94
16120;BME280;12670;53.502;10.252;2023-05-14T00:49:40;101675.50;;;13.35;77.65
16120;BME280;12670;53.502;10.252;2023-05-14T00:52:44;101671.00;;;13.37;78.04
16120;BME280;12670;53.502;10.252;2023-05-14T00:55:48;101666.94;;;13.27;78.26
16120;BME280;12670;53.502;10.252;2023-05-14T00:58:51;101675.66;;;13.32;77.62
16120;BME280;12670;53.502;10.252;2023-05-14T01:01:54;101673.94;;;13.29;78.43
16120;BME280;12670;53.502;10.252;2023-05-14T01:04:57;101674.25;;;13.22;78.50
16120;BME280;12670;53.502;10.252;2023-05-14T01:08:05;101674.56;;;13.36;77.79
16120;BME280;12670;53.502;10.252;2023-05-14T01:11:13;101675.66;;;13.32;77.79
16120;BME280;12670;53.502;10.252;2023-05-14T01:14:43;101673.31;;;13.23;78.46
16120;BME280;12670;53.502;10.252;2023-05-14T01:17:50;101672.50;;;13.21;78.86
16120;BME280;12670;53.502;10.252;2023-05-14T01:20:53;101670.22;;;13.10;79.39
16120;BME280;12670;53.502;10.252;2023-05-14T01:23:57;101669.69;;;13.00;79.69
16120;BME280;12670;53.502;10.252;2023-05-14T01:27:05;101674.91;;;13.03;79.03
16120;BME280;12670;53.502;10.252;2023-05-14T01:30:13;101665.81;;;12.86;80.02
16120;BME280;12670;53.502;10.252;2023-05-14T01:33:20;101669.44;;;12.83;80.11
16120;BME280;12670;53.502;10.252;2023-05-14T01:36:23;101666.19;;;12.75;81.26
16120;BME280;12670;53.502;10.252;2023-05-14T01:39:27;101669.72;;;12.75;80.78
16120;BME280;12670;53.502;10.252;2023-05-14T01:42:32;101672.09;;;12.58;82.24
16120;BME280;12670;53.502;10.252;2023-05-14T01:45:36;101665.69;;;12.64;81.54
16120;BME280;12670;53.502;10.252;2023-05-14T01:48:38;101669.38;;;12.60;81.21
16120;BME280;12670;53.502;10.252;2023-05-14T01:51:41;101667.06;;;12.50;82.06
16120;BME280;12670;53.502;10.252;2023-05-14T01:54:45;101672.38;;;12.50;82.15
16120;BME280;12670;53.502;10.252;2023-05-14T01:57:48;101665.56;;;12.42;83.14
16120;BME280;12670;53.502;10.252;2023-05-14T02:00:50;101667.31;;;12.43;82.74
16120;BME280;12670;53.502;10.252;2023-05-14T02:03:53;101668.22;;;12.43;82.35
16120;BME280;12670;53.502;10.252;2023-05-14T02:06:56;101663.53;;;12.50;82.26
16120;BME280;12670;53.502;10.252;2023-05-14T02:10:00;101668.94;;;12.47;81.88
16120;BME280;12670;53.502;10.252;2023-05-14T02:13:02;101664.00;;;12.36;83.00
16120;BME280;12670;53.502;10.252;2023-05-14T02:16:05;101664.41;;;12.24;83.13
16120;BME280;12670;53.502;10.252;2023-05-14T02:19:08;101662.69;;;12.23;84.18
16120;BME280;12670;53.502;10.252;2023-05-14T02:22:12;101660.78;;;12.26;83.90
16120;BME280;12670;53.502;10.252;2023-05-14T02:25:16;101662.16;;;12.12;83.73
16120;BME280;12670;53.502;10.252;2023-05-14T02:28:19;101657.00;;;12.07;85.05
16120;BME280;12670;53.502;10.252;2023-05-14T02:31:22;101653.38;;;12.10;84.86
16120;BME280;12670;53.502;10.252;2023-05-14T02:34:25;101661.88;;;12.21;83.42
16120;BME280;12670;53.502;10.252;2023-05-14T02:37:27;101657.88;;;12.08;84.54
16120;BME280;12670;53.502;10.252;2023-05-14T02:40:31;101660.31;;;11.87;85.60
16120;BME280;12670;53.502;10.252;2023-05-14T02:43:34;101655.94;;;11.86;85.24
16120;BME280;12670;53.502;10.252;2023-05-14T02:46:37;101650.50;;;11.89;86.09
16120;BME280;12670;53.502;10.252;2023-05-14T02:49:39;101646.56;;;12.01;85.46
16120;BME280;12670;53.502;10.252;2023-05-14T02:52:42;101647.13;;;11.84;85.24
16120;BME280;12670;53.502;10.252;2023-05-14T02:55:46;101641.91;;;11.81;85.47
16120;BME280;12670;53.502;10.252;2023-05-14T02:58:48;101639.31;;;11.78;85.85
16120;BME280;12670;53.502;10.252;2023-05-14T03:01:51;101655.63;;;11.67;87.49
16120;BME280;12670;53.502;10.252;2023-05-14T03:04:54;101653.78;;;11.69;87.01
16120;BME280;12670;53.502;10.252;2023-05-14T03:07:57;101643.03;;;11.72;87.38
16120;BME280;12670;53.502;10.252;2023-05-14T03:11:01;101645.75;;;11.71;87.04
16120;BME280;12670;53.502;10.252;2023-05-14T03:14:03;101639.38;;;11.77;86.57
16120;BME280;12670;53.502;10.252;2023-05-14T03:17:06;101640.75;;;11.62;87.18
16120;BME280;12670;53.502;10.252;2023-05-14T03:20:10;101639.16;;;11.55;88.51
16120;BME280;12670;53.502;10.252;2023-05-14T03:23:13;101636.50;;;11.56;87.83
16120;BME280;12670;53.502;10.252;2023-05-14T03:26:18;101649.19;;;11.46;88.02
16120;BME280;12670;53.502;10.252;2023-05-14T03:29:22;101644.50;;;11.55;88.49
16120;BME280;12670;53.502;10.252;2023-05-14T03:32:24;101632.22;;;11.51;88.52
16120;BME280;12670;53.502;10.252;2023-05-14T03:35:27;101636.16;;;11.37;89.24
16120;BME280;12670;53.502;10.252;2023-05-14T03:38:29;101639.75;;;11.36;89.44
16120;BME280;12670;53.502;10.252;2023-05-14T03:41:34;101643.19;;;11.40;89.86
16120;BME280;12670;53.502;10.252;2023-05-14T03:44:38;101640.41;;;11.43;89.93
16120;BME280;12670;53.502;10.252;2023-05-14T03:47:41;101642.50;;;11.33;90.58
16120;BME280;12670;53.502;10.252;2023-05-14T03:50:43;101638.13;;;11.32;90.67
16120;BME280;12670;53.502;10.252;2023-05-14T03:53:46;101639.66;;;11.39;89.83
16120;BME280;12670;53.502;10.252;2023-05-14T03:56:50;101641.31;;;11.43;90.12
16120;BME280;12670;53.502;10.252;2023-05-14T03:59:52;101640.66;;;11.35;90.18
16120;BME280;12670;53.502;10.252;2023-05-14T04:02:55;101637.81;;;11.41;90.68
16120;BME280;12670;53.502;10.252;2023-05-14T04:05:58;101645.78;;;11.41;90.12
16120;BME280;12670;53.502;10.252;2023-05-14T04:09:00;101645.75;;;11.43;90.45
16120;BME280;12670;53.502;10.252;2023-05-14T04:12:06;101657.53;;;11.34;90.97
16120;BME280;12670;53.502;10.252;2023-05-14T04:15:09;101640.41;;;11.43;91.06
16120;BME280;12670;53.502;10.252;2023-05-14T04:18:12;101639.56;;;11.42;91.11
16120;BME280;12670;53.502;10.252;2023-05-14T04:21:15;101643.69;;;11.53;91.11
16120;BME280;12670;53.502;10.252;2023-05-14T04:24:17;101636.50;;;11.56;91.21
16120;BME280;12670;53.502;10.252;2023-05-14T04:27:21;101638.97;;;11.61;90.66
16120;BME280;12670;53.502;10.252;2023-05-14T04:30:24;101641.69;;;11.59;91.39
16120;BME280;12670;53.502;10.252;2023-05-14T04:33:27;101643.22;;;11.66;91.26
16120;BME280;12670;53.502;10.252;2023-05-14T04:36:29;101634.16;;;11.73;91.14
16120;BME280;12670;53.502;10.252;2023-05-14T04:39:32;101630.84;;;11.67;92.41
16120;BME280;12670;53.502;10.252;2023-05-14T04:42:36;101629.41;;;11.85;92.08
16120;BME280;12670;53.502;10.252;2023-05-14T04:45:39;101634.47;;;11.92;92.15
16120;BME280;12670;53.502;10.252;2023-05-14T04:48:42;101635.03;;;12.02;91.10
16120;BME280;12670;53.502;10.252;2023-05-14T04:51:44;101632.09;;;12.10;91.50
16120;BME280;12670;53.502;10.252;2023-05-14T04:54:48;101639.72;;;12.20;92.29
16120;BME280;12670;53.502;10.252;2023-05-14T04:57:52;101641.19;;;12.29;93.18
16120;BME280;12670;53.502;10.252;2023-05-14T05:00:55;101643.53;;;12.38;93.71
16120;BME280;12670;53.502;10.252;2023-05-14T05:03:57;101640.69;;;12.43;93.70
16120;BME280;12670;53.502;10.252;2023-05-14T05:07:00;101643.97;;;12.51;93.71
16120;BME280;12670;53.502;10.252;2023-05-14T05:10:03;101646.03;;;12.68;92.65
16120;BME280;12670;53.502;10.252;2023-05-14T05:13:07;101643.84;;;12.79;92.16
16120;BME280;12670;53.502;10.252;2023-05-14T05:16:10;101640.78;;;12.90;90.96
16120;BME280;12670;53.502;10.252;2023-05-14T05:19:13;101638.53;;;13.02;90.58
16120;BME280;12670;53.502;10.252;2023-05-14T05:22:16;101642.78;;;13.08;90.99
16120;BME280;12670;53.502;10.252;2023-05-14T05:25:18;101642.56;;;13.13;90.66
16120;BME280;12670;53.502;10.252;2023-05-14T05:28:22;101647.38;;;13.28;90.27
16120;BME280;12670;53.502;10.252;2023-05-14T05:31:25;101639.81;;;13.39;90.57
16120;BME280;12670;53.502;10.252;2023-05-14T05:34:28;101633.00;;;13.54;90.53
16120;BME280;12670;53.502;10.252;2023-05-14T05:37:30;101634.28;;;13.67;89.96
16120;BME280;12670;53.502;10.252;2023-05-14T05:40:33;101642.63;;;13.80;89.52
16120;BME280;12670;53.502;10.252;2023-05-14T05:43:37;101631.19;;;13.98;89.83
16120;BME280;12670;53.502;10.252;2023-05-14T05:46:40;101633.34;;;14.10;89.70
16120;BME280;12670;53.502;10.252;2023-05-14T05:49:42;101628.09;;;14.29;89.08
16120;BME280;12670;53.502;10.252;2023-05-14T05:52:45;101633.41;;;14.51;88.10
16120;BME280;12670;53.502;10.252;2023-05-14T05:55:48;101632.47;;;14.73;86.68
16120;BME280;12670;53.502;10.252;2023-05-14T05:58:53;101637.47;;;14.99;87.33
16120;BME280;12670;53.502;10.252;2023-05-14T06:01:56;101638.78;;;15.09;86.06
16120;BME280;12670;53.502;10.252;2023-05-14T06:04:58;101639.66;;;15.29;85.93
16120;BME280;12670;53.502;10.252;2023-05-14T06:08:01;101636.84;;;15.51;81.97
16120;BME280;12670;53.502;10.252;2023-05-14T06:11:04;101623.97;;;15.78;75.63
16120;BME280;12670;53.502;10.252;2023-05-14T06:14:08;101631.16;;;16.12;76.11
16120;BME280;12670;53.502;10.252;2023-05-14T06:17:11;101631.41;;;16.24;72.33
16120;BME280;12670;53.502;10.252;2023-05-14T06:20:13;101631.41;;;16.42;73.44
16120;BME280;12670;53.502;10.252;2023-05-14T06:23:16;101630.91;;;16.51;70.52
16120;BME280;12670;53.502;10.252;2023-05-14T06:26:19;101629.81;;;16.72;73.21
16120;BME280;12670;53.502;10.252;2023-05-14T06:29:24;101629.63;;;16.75;68.10
16120;BME280;12670;53.502;10.252;2023-05-14T06:32:26;101633.53;;;17.03;70.00
16120;BME280;12670;53.502;10.252;2023-05-14T06:35:29;101636.63;;;17.11;70.61
16120;BME280;12670;53.502;10.252;2023-05-14T06:38:32;101638.22;;;17.15;68.21
16120;BME280;12670;53.502;10.252;2023-05-14T06:41:34;101632.59;;;17.20;66.15
16120;BME280;12670;53.502;10.252;2023-05-14T06:44:38;101621.44;;;17.43;66.76
16120;BME280;12670;53.502;10.252;2023-05-14T06:47:41;101627.13;;;17.69;69.71
16120;BME280;12670;53.502;10.252;2023-05-14T06:50:44;101631.81;;;17.81;65.26
16120;BME280;12670;53.502;10.252;2023-05-14T06:53:47;101621.06;;;17.97;69.15
16120;BME280;12670;53.502;10.252;2023-05-14T06:56:50;101618.41;;;18.11;64.54
16120;BME280;12670;53.502;10.252;2023-05-14T06:59:54;101621.53;;;18.19;63.75
16120;BME280;12670;53.502;10.252;2023-05-14T07:02:57;101620.59;;;18.34;62.35
16120;BME280;12670;53.502;10.252;2023-05-14T07:06:00;101622.38;;;18.64;60.43
16120;BME280;12670;53.502;10.252;2023-05-14T07:09:03;101614.94;;;18.83;60.02
16120;BME280;12670;53.502;10.252;2023-05-14T07:12:07;101614.94;;;18.98;59.41
16120;BME280;12670;53.502;10.252;2023-05-14T07:15:11;101615.41;;;19.04;58.96
16120;BME280;12670;53.502;10.252;2023-05-14T07:18:14;101612.34;;;18.96;56.65
16120;BME280;12670;53.502;10.252;2023-05-14T07:21:16;101612.03;;;19.15;55.88
16120;BME280;12670;53.502;10.252;2023-05-14T07:24:19;101601.66;;;19.23;55.13
16120;BME280;12670;53.502;10.252;2023-05-14T07:27:22;101603.00;;;19.57;55.11
16120;BME280;12670;53.502;10.252;2023-05-14T07:30:26;101598.66;;;19.69;52.53
16120;BME280;12670;53.502;10.252;2023-05-14T07:33:28;101600.34;;;19.84;52.32
16120;BME280;12670;53.502;10.252;2023-05-14T07:36:31;101597.38;;;20.02;54.52
16120;BME280;12670;53.502;10.252;2023-05-14T07:39:33;101598.94;;;20.31;51.09
16120;BME280;12670;53.502;10.252;2023-05-14T07:42:36;101596.56;;;20.39;51.84
16120;BME280;12670;53.502;10.252;2023-05-14T07:45:40;101593.13;;;20.37;51.59
16120;BME280;12670;53.502;10.252;2023-05-14T07:48:43;101591.22;;;20.65;50.23
16120;BME280;12670;53.502;10.252;2023-05-14T07:51:45;101586.25;;;20.84;52.25
16120;BME280;12670;53.502;10.252;2023-05-14T07:54:49;101582.25;;;20.90;47.99
16120;BME280;12670;53.502;10.252;2023-05-14T07:57:51;101579.31;;;20.93;51.11
16120;BME280;12670;53.502;10.252;2023-05-14T08:00:55;101586.31;;;21.08;51.30
16120;BME280;12670;53.502;10.252;2023-05-14T08:03:58;101585.22;;;21.11;51.16
16120;BME280;12670;53.502;10.252;2023-05-14T08:07:01;101577.84;;;21.25;47.17
16120;BME280;12670;53.502;10.252;2023-05-14T08:10:04;101576.75;;;21.28;47.79
16120;BME280;12670;53.502;10.252;2023-05-14T08:13:08;101580.25;;;21.54;49.36
16120;BME280;12670;53.502;10.252;2023-05-14T08:16:12;101580.88;;;21.58;48.87
16120;BME280;12670;53.502;10.252;2023-05-14T08:19:15;101580.72;;;21.72;43.45
16120;BME280;12670;53.502;10.252;2023-05-14T08:22:18;101572.94;;;21.91;45.77
16120;BME280;12670;53.502;10.252;2023-05-14T08:25:20;101568.53;;;21.66;42.96
16120;BME280;12670;53.502;10.252;2023-05-14T08:28:23;101575.38;;;21.83;44.16
16120;BME280;12670;53.502;10.252;2023-05-14T08:31:27;101563.47;;;22.21;46.41
16120;BME280;12670;53.502;10.252;2023-05-14T08:34:30;101562.28;;;22.36;46.61
16120;BME280;12670;53.502;10.252;2023-05-14T08:37:33;101563.88;;;22.39;42.91
16120;BME280;12670;53.502;10.252;2023-05-14T08:40:35;101571.91;;;22.74;43.20
16120;BME280;12670;53.502;10.252;2023-05-14T08:43:44;101560.22;;;22.84;41.69
16120;BME280;12670;53.502;10.252;2023-05-14T08:46:53;101551.00;;;22.42;41.33
16120;BME280;12670;53.502;10.252;2023-05-14T08:50:00;101549.75;;;22.80;40.86
16120;BME280;12670;53.502;10.252;2023-05-14T08:53:04;101542.81;;;22.88;41.16
16120;BME280;12670;53.502;10.252;2023-05-14T08:56:07;101553.69;;;23.21;42.05
16120;BME280;12670;53.502;10.252;2023-05-14T08:59:10;101535.00;;;23.18;40.96
16120;BME280;12670;53.502;10.252;2023-05-14T09:02:15;101538.00;;;23.47;41.66
16120;BME280;12670;53.502;10.252;2023-05-14T09:05:18;101530.41;;;23.73;43.13
16120;BME280;12670;53.502;10.252;2023-05-14T09:08:21;101538.44;;;23.95;41.51
16120;BME280;12670;53.502;10.252;2023-05-14T09:11:23;101521.50;;;23.82;40.02
16120;BME280;12670;53.502;10.252;2023-05-14T09:14:26;101523.09;;;24.05;41.68
16120;BME280;12670;53.502;10.252;2023-05-14T09:17:30;101521.75;;;24.20;37.41
16120;BME280;12670;53.502;10.252;2023-05-14T09:20:33;101516.19;;;24.73;40.14
16120;BME280;12670;53.502;10.252;2023-05-14T09:23:40;101522.72;;;24.92;36.79
16120;BME280;12670;53.502;10.252;2023-05-14T09:26:43;101519.19;;;24.70;36.46
16120;BME280;12670;53.502;10.252;2023-05-14T09:29:46;101510.66;;;24.85;36.40
16120;BME280;12670;53.502;10.252;2023-05-14T09:32:52;101519.19;;;24.70;35.67
16120;BME280;12670;53.502;10.252;2023-05-14T09:36:00;101514.19;;;25.06;37.19
16120;BME280;12670;53.502;10.252;2023-05-14T09:39:03;101523.09;;;25.18;32.60
16120;BME280;12670;53.502;10.252;2023-05-14T09:42:06;101516.41;;;25.51;34.76
16120;BME280;12670;53.502;10.252;2023-05-14T09:45:09;101508.56;;;25.58;33.72
16120;BME280;12670;53.502;10.252;2023-05-14T09:48:13;101508.25;;;25.70;35.20
16120;BME280;12670;53.502;10.252;2023-05-14T09:51:16;101499.94;;;26.11;33.11
16120;BME280;12670;53.502;10.252;2023-05-14T09:54:19;101502.13;;;25.39;31.28
16120;BME280;12670;53.502;10.252;2023-05-14T09:57:22;101490.53;;;25.47;33.96
16120;BME280;12670;53.502;10.252;2023-05-14T10:00:24;101492.84;;;24.92;36.30
16120;BME280;12670;53.502;10.252;2023-05-14T10:03:29;101491.78;;;25.72;33.63
16120;BME280;12670;53.502;10.252;2023-05-14T10:06:33;101478.00;;;26.22;31.07
16120;BME280;12670;53.502;10.252;2023-05-14T10:09:38;101480.91;;;27.13;31.88
16120;BME280;12670;53.502;10.252;2023-05-14T10:12:45;101483.19;;;27.53;31.29
16120;BME280;12670;53.502;10.252;2023-05-14T10:15:55;101475.16;;;27.33;33.42
16120;BME280;12670;53.502;10.252;2023-05-14T10:19:05;101472.34;;;27.43;29.65
16120;BME280;12670;53.502;10.252;2023-05-14T10:22:10;101479.34;;;27.81;33.00
16120;BME280;12670;53.502;10.252;2023-05-14T10:25:14;101471.31;;;27.98;30.13
16120;BME280;12670;53.502;10.252;2023-05-14T10:28:17;101477.19;;;28.37;29.75
16120;BME280;12670;53.502;10.252;2023-05-14T10:31:22;101473.88;;;27.99;31.08
16120;BME280;12670;53.502;10.252;2023-05-14T10:34:34;101461.00;;;28.43;29.52
16120;BME280;12670;53.502;10.252;2023-05-14T10:37:39;101468.13;;;27.84;30.39
16120;BME280;12670;53.502;10.252;2023-05-14T10:40:41;101468.50;;;26.73;28.77
16120;BME280;12670;53.502;10.252;2023-05-14T10:43:44;101459.91;;;25.25;30.98
16120;BME280;12670;53.502;10.252;2023-05-14T10:46:47;101468.31;;;26.10;30.54
16120;BME280;12670;53.502;10.252;2023-05-14T10:49:52;101450.53;;;27.43;31.87
16120;BME280;12670;53.502;10.252;2023-05-14T10:52:56;101445.66;;;27.90;29.14
16120;BME280;12670;53.502;10.252;2023-05-14T10:56:02;101442.66;;;26.87;32.30
16120;BME280;12670;53.502;10.252;2023-05-14T10:59:06;101446.09;;;26.14;32.80
16120;BME280;12670;53.502;10.252;2023-05-14T11:02:20;101437.22;;;27.04;31.30
16120;BME280;12670;53.502;10.252;2023-05-14T11:05:25;101441.38;;;26.53;33.17
16120;BME280;12670;53.502;10.252;2023-05-14T11:08:29;101434.31;;;25.76;32.84
16120;BME280;12670;53.502;10.252;2023-05-14T11:11:32;101434.19;;;25.10;34.31
16120;BME280;12670;53.502;10.252;2023-05-14T11:14:35;101422.63;;;24.68;31.18
16120;BME280;12670;53.502;10.252;2023-05-14T11:17:39;101427.72;;;24.42;33.38
16120;BME280;12670;53.502;10.252;2023-05-14T11:20:43;101424.91;;;25.22;32.15
16120;BME280;12670;53.502;10.252;2023-05-14T11:23:46;101421.47;;;25.40;32.92
16120;BME280;12670;53.502;10.252;2023-05-14T11:26:49;101416.19;;;25.29;36.13
16120;BME280;12670;53.502;10.252;2023-05-14T11:29:52;101414.91;;;26.73;30.95
16120;BME280;12670;53.502;10.252;2023-05-14T11:32:56;101415.19;;;26.15;28.17
16120;BME280;12670;53.502;10.252;2023-05-14T11:36:04;101418.19;;;25.46;31.51
16120;BME280;12670;53.502;10.252;2023-05-14T11:39:07;101414.47;;;25.47;32.47
16120;BME280;12670;53.502;10.252;2023-05-14T11:42:11;101417.47;;;25.05;33.48
16120;BME280;12670;53.502;10.252;2023-05-14T11:45:23;101415.91;;;24.32;32.46
16120;BME280;12670;53.502;10.252;2023-05-14T11:48:26;101415.25;;;24.09;32.33
16120;BME280;12670;53.502;10.252;2023-05-14T11:51:30;101411.13;;;24.14;32.71
16120;BME280;12670;53.502;10.252;2023-05-14T11:54:33;101419.56;;;23.90;33.81
16120;BME280;12670;53.502;10.252;2023-05-14T11:57:36;101416.22;;;23.77;35.78
16120;BME280;12670;53.502;10.252;2023-05-14T12:00:39;101404.63;;;23.96;33.09
16120;BME280;12670;53.502;10.252;2023-05-14T12:03:41;101405.47;;;23.87;33.58
16120;BME280;12670;53.502;10.252;2023-05-14T12:06:46;101405.03;;;23.91;33.66
16120;BME280;12670;53.502;10.252;2023-05-14T12:09:49;101403.09;;;24.03;34.66
16120;BME280;12670;53.502;10.252;2023-05-14T12:12:52;101391.28;;;24.04;36.54
16120;BME280;12670;53.502;10.252;2023-05-14T12:15:55;101387.66;;;24.25;36.19
16120;BME280;12670;53.502;10.252;2023-05-14T12:18:58;101399.59;;;24.43;33.00
16120;BME280;12670;53.502;10.252;2023-05-14T12:22:04;101390.63;;;24.52;33.21
16120;BME280;12670;53.502;10.252;2023-05-14T12:25:10;101381.69;;;24.81;32.99
16120;BME280;12670;53.502;10.252;2023-05-14T12:28:14;101382.88;;;25.36;32.12
16120;BME280;12670;53.502;10.252;2023-05-14T12:31:17;101375.38;;;26.14;30.27
16120;BME280;12670;53.502;10.252;2023-05-14T12:34:20;101372.06;;;26.75;32.40
16120;BME280;12670;53.502;10.252;2023-05-14T12:37:24;101358.16;;;27.14;28.27
16120;BME280;12670;53.502;10.252;2023-05-14T12:40:26;101361.13;;;27.39;27.53
16120;BME280;12670;53.502;10.252;2023-05-14T12:43:29;101356.91;;;26.91;29.55
16120;BME280;12670;53.502;10.252;2023-05-14T12:46:32;101353.25;;;26.82;29.09
16120;BME280;12670;53.502;10.252;2023-05-14T12:49:35;101346.72;;;26.57;28.29
16120;BME280;12670;53.502;10.252;2023-05-14T12:52:39;101364.50;;;26.14;30.91
16120;BME280;12670;53.502;10.252;2023-05-14T12:55:42;101364.13;;;25.52;29.51
16120;BME280;12670;53.502;10.252;2023-05-14T12:58:45;101359.56;;;25.05;31.97
16120;BME280;12670;53.502;10.252;2023-05-14T13:01:48;101358.94;;;24.53;32.34
16120;BME280;12670;53.502;10.252;2023-05-14T13:04:51;101366.75;;;24.06;35.79
16120;BME280;12670;53.502;10.252;2023-05-14T13:07:58;101367.03;;;23.61;40.32
16120;BME280;12670;53.502;10.252;2023-05-14T13:11:02;101365.56;;;22.94;45.23
16120;BME280;12670;53.502;10.252;2023-05-14T13:14:05;101352.91;;;22.29;55.83
16120;BME280;12670;53.502;10.252;2023-05-14T13:17:07;101348.22;;;21.97;55.65
16120;BME280;12670;53.502;10.252;2023-05-14T13:20:10;101340.88;;;21.88;64.73
16120;BME280;12670;53.502;10.252;2023-05-14T13:23:14;101334.59;;;21.88;62.80
16120;BME280;12670;53.502;10.252;2023-05-14T13:26:17;101328.22;;;22.00;61.23
16120;BME280;12670;53.502;10.252;2023-05-14T13:29:19;101326.59;;;21.97;56.38
16120;BME280;12670;53.502;10.252;2023-05-14T13:32:23;101320.22;;;21.98;54.97
16120;BME280;12670;53.502;10.252;2023-05-14T13:35:26;101315.78;;;22.31;54.33
16120;BME280;12670;53.502;10.252;2023-05-14T13:38:30;101309.09;;;22.57;46.20
16120;BME280;12670;53.502;10.252;2023-05-14T13:41:32;101314.84;;;22.64;48.19
16120;BME280;12670;53.502;10.252;2023-05-14T13:44:36;101315.38;;;22.90;41.04
16120;BME280;12670;53.502;10.252;2023-05-14T13:47:38;101309.59;;;22.95;40.88
16120;BME280;12670;53.502;10.252;2023-05-14T13:50:41;101299.03;;;23.85;39.55
16120;BME280;12670;53.502;10.252;2023-05-14T13:53:45;101296.41;;;24.54;42.76
16120;BME280;12670;53.502;10.252;2023-05-14T13:56:48;101296.00;;;24.68;38.43
16120;BME280;12670;53.502;10.252;2023-05-14T13:59:50;101290.81;;;24.46;36.01
16120;BME280;12670;53.502;10.252;2023-05-14T14:02:53;101292.78;;;25.41;33.78
16120;BME280;12670;53.502;10.252;2023-05-14T14:05:55;101282.75;;;25.98;32.51
16120;BME280;12670;53.502;10.252;2023-05-14T14:08:59;101279.13;;;26.52;30.11
16120;BME280;12670;53.502;10.252;2023-05-14T14:12:03;101273.47;;;26.18;30.32
16120;BME280;12670;53.502;10.252;2023-05-14T14:15:06;101282.84;;;25.69;28.85
16120;BME280;12670;53.502;10.252;2023-05-14T14:18:09;101283.22;;;25.37;31.02
16120;BME280;12670;53.502;10.252;2023-05-14T14:21:12;101275.66;;;25.40;32.72
16120;BME280;12670;53.502;10.252;2023-05-14T14:24:19;101273.16;;;25.57;30.20
16120;BME280;12670;53.502;10.252;2023-05-14T14:27:22;101262.97;;;25.68;31.98
16120;BME280;12670;53.502;10.252;2023-05-14T14:30:24;101258.34;;;25.78;34.05
16120;BME280;12670;53.502;10.252;2023-05-14T14:33:27;101259.41;;;25.11;31.57
16120;BME280;12670;53.502;10.252;2023-05-14T14:36:29;101252.69;;;24.96;32.05
16120;BME280;12670;53.502;10.252;2023-05-14T14:39:34;101250.00;;;24.77;29.75
16120;BME280;12670;53.502;10.252;2023-05-14T14:42:37;101248.41;;;24.55;30.60
16120;BME280;12670;53.502;10.252;2023-05-14T14:45:39;101244.84;;;24.73;31.54
16120;BME280;12670;53.502;10.252;2023-05-14T14:48:43;101240.41;;;24.72;32.28
16120;BME280;12670;53.502;10.252;2023-05-14T14:51:46;101237.25;;;24.29;31.82
16120;BME280;12670;53.502;10.252;2023-05-14T14:54:50;101243.06;;;24.14;33.07
16120;BME280;12670;53.502;10.252;2023-05-14T14:57:53;101235.66;;;24.16;34.20
16120;BME280;12670;53.502;10.252;2023-05-14T15:00:56;101237.72;;;23.84;35.87
16120;BME280;12670;53.502;10.252;2023-05-14T15:03:59;101231.50;;;23.62;34.24
16120;BME280;12670;53.502;10.252;2023-05-14T15:07:01;101226.97;;;23.42;34.56
16120;BME280;12670;53.502;10.252;2023-05-14T15:10:07;101230.91;;;23.28;34.48
16120;BME280;12670;53.502;10.252;2023-05-14T15:13:11;101228.13;;;23.19;35.25
16120;BME280;12670;53.502;10.252;2023-05-14T15:16:14;101224.97;;;23.44;35.34
16120;BME280;12670;53.502;10.252;2023-05-14T15:19:16;101228.00;;;23.51;34.73
16120;BME280;12670;53.502;10.252;2023-05-14T15:22:19;101226.56;;;22.95;35.09
16120;BME280;12670;53.502;10.252;2023-05-14T15:25:24;101219.38;;;23.05;34.15
16120;BME280;12670;53.502;10.252;2023-05-14T15:28:27;101213.34;;;23.23;33.56
16120;BME280;12670;53.502;10.252;2023-05-14T15:31:30;101218.13;;;22.88;34.19
16120;BME280;12670;53.502;10.252;2023-05-14T15:34:33;101215.56;;;22.55;34.43
16120;BME280;12670;53.502;10.252;2023-05-14T15:37:37;101210.88;;;22.25;34.78
16120;BME280;12670;53.502;10.252;2023-05-14T15:40:41;101204.25;;;22.29;36.78
16120;BME280;12670;53.502;10.252;2023-05-14T15:43:43;101206.59;;;22.54;36.11
16120;BME280;12670;53.502;10.252;2023-05-14T15:46:46;101202.34;;;22.41;34.71